Startpagina
Satellietbeelden 15-daagse weersverwachtingenKlimaatWeer op zee Cyclonen Bliksem VliegveldenFAQ Nieuwsbrief Over ons
Weer : Europa Afrika Noord-Amerika Zuid-Amerika Azië Australië-Oceanië Overige
Talen Contact

Oostende, België

breedte: 51-12N, lengte: 002-52E, hoogte: 4 m


METAR: EBOS 310420Z 17005KT 150V210 8000 NSC 11/09 Q1020 NOSIG
TAF: EBOS 302300Z 3100/0106 16006KT 6000 MIFG NSC PROB30 TEMPO 3100/3106 3000 BR

Tijdstip: 05:38 (04:38 UTC)

Actueel weer

Dit bericht is 18 minuten geleden gemaakt, om 04:20 UTC
Wind 5 kt uit het zuiden, variërend tussen het zuidzuidoosten en het zuidzuidwesten
Temperatuur 11°C
Vochtigheid 87%
Druk 1020 hPa
Zicht: 8000 m

Eenheden wijzigen

Verwachting

Dit bericht is 5 uur en het 38 minuten geleden gemaakt, om 23:00 UTC
Verwachting geldig van 31 om 00 UTC tot 01 om 06 UTC
Wind 6 kt uit het zuidzuidoosten
Zicht: 6000 m
laaghangend mist
Kans 30% :
Tijdelijke
van 31 om 00 UTC tot 31 om 06 UTC
Zicht: 3000 m
nevel
Voor de informatie op deze site geldt een disclaimer
Weer : Europa Afrika Noord-Amerika Zuid-Amerika Azië Australië-Oceanië Overige
Satellietbeelden 15-daagse weersverwachtingenKlimaatWeer op zee Cyclonen Bliksem VliegveldenFAQ Talen Contact Nieuwsbrief Over ons